sensor_id;sensor_type;location;lat;lon;timestamp;P1;durP1;ratioP1;P2;durP2;ratioP2
33802;SDS011;20110;53.120;5.786;2022-12-18T00:01:19;91.75;;;34.60;;
33802;SDS011;20110;53.120;5.786;2022-12-18T00:03:58;81.68;;;29.80;;
33802;SDS011;20110;53.120;5.786;2022-12-18T00:06:27;59.97;;;24.70;;
33802;SDS011;20110;53.120;5.786;2022-12-18T00:08:55;67.90;;;27.60;;
33802;SDS011;20110;53.120;5.786;2022-12-18T00:11:23;98.53;;;30.10;;
33802;SDS011;20110;53.120;5.786;2022-12-18T00:13:53;61.97;;;25.55;;
33802;SDS011;20110;53.120;5.786;2022-12-18T00:16:23;72.82;;;23.13;;
33802;SDS011;20110;53.120;5.786;2022-12-18T00:18:51;110.72;;;35.60;;
33802;SDS011;20110;53.120;5.786;2022-12-18T00:21:20;74.45;;;27.77;;
33802;SDS011;20110;53.120;5.786;2022-12-18T00:23:47;113.05;;;38.38;;
33802;SDS011;20110;53.120;5.786;2022-12-18T00:26:19;74.40;;;24.95;;
33802;SDS011;20110;53.120;5.786;2022-12-18T00:28:47;60.47;;;21.50;;
33802;SDS011;20110;53.120;5.786;2022-12-18T00:31:15;67.50;;;28.65;;
33802;SDS011;20110;53.120;5.786;2022-12-18T00:33:44;82.50;;;29.48;;
33802;SDS011;20110;53.120;5.786;2022-12-18T00:36:11;97.35;;;34.58;;
33802;SDS011;20110;53.120;5.786;2022-12-18T00:38:40;76.05;;;27.45;;
33802;SDS011;20110;53.120;5.786;2022-12-18T00:41:07;94.93;;;34.15;;
33802;SDS011;20110;53.120;5.786;2022-12-18T00:43:36;60.40;;;24.13;;
33802;SDS011;20110;53.120;5.786;2022-12-18T00:46:02;123.47;;;41.42;;
33802;SDS011;20110;53.120;5.786;2022-12-18T00:48:28;78.03;;;30.67;;
33802;SDS011;20110;53.120;5.786;2022-12-18T00:50:54;88.80;;;27.23;;
33802;SDS011;20110;53.120;5.786;2022-12-18T00:53:20;95.38;;;35.78;;
33802;SDS011;20110;53.120;5.786;2022-12-18T00:55:46;71.20;;;25.95;;
33802;SDS011;20110;53.120;5.786;2022-12-18T00:58:13;82.32;;;30.90;;
33802;SDS011;20110;53.120;5.786;2022-12-18T01:00:41;69.32;;;26.52;;
33802;SDS011;20110;53.120;5.786;2022-12-18T01:03:07;92.28;;;36.05;;
33802;SDS011;20110;53.120;5.786;2022-12-18T01:05:38;90.28;;;35.30;;
33802;SDS011;20110;53.120;5.786;2022-12-18T01:08:05;77.72;;;30.33;;
33802;SDS011;20110;53.120;5.786;2022-12-18T01:10:31;80.85;;;26.80;;
33802;SDS011;20110;53.120;5.786;2022-12-18T01:12:57;64.72;;;25.02;;
33802;SDS011;20110;53.120;5.786;2022-12-18T01:15:23;71.10;;;24.95;;
33802;SDS011;20110;53.120;5.786;2022-12-18T01:17:48;103.50;;;34.40;;
33802;SDS011;20110;53.120;5.786;2022-12-18T01:20:17;83.38;;;32.47;;
33802;SDS011;20110;53.120;5.786;2022-12-18T01:22:43;61.88;;;24.67;;
33802;SDS011;20110;53.120;5.786;2022-12-18T01:25:09;53.72;;;24.67;;
33802;SDS011;20110;53.120;5.786;2022-12-18T01:27:35;85.70;;;28.23;;
33802;SDS011;20110;53.120;5.786;2022-12-18T01:30:01;84.35;;;30.55;;
33802;SDS011;20110;53.120;5.786;2022-12-18T01:32:29;71.07;;;27.42;;
33802;SDS011;20110;53.120;5.786;2022-12-18T01:34:56;96.28;;;33.08;;
33802;SDS011;20110;53.120;5.786;2022-12-18T01:37:22;81.10;;;32.30;;
33802;SDS011;20110;53.120;5.786;2022-12-18T01:39:48;93.75;;;33.38;;
33802;SDS011;20110;53.120;5.786;2022-12-18T01:42:15;65.82;;;23.23;;
33802;SDS011;20110;53.120;5.786;2022-12-18T01:44:47;72.10;;;25.52;;
33802;SDS011;20110;53.120;5.786;2022-12-18T01:47:36;68.43;;;25.48;;
33802;SDS011;20110;53.120;5.786;2022-12-18T01:50:28;69.03;;;23.63;;
33802;SDS011;20110;53.120;5.786;2022-12-18T01:53:05;87.60;;;32.75;;
33802;SDS011;20110;53.120;5.786;2022-12-18T01:58:24;83.57;;;29.27;;
33802;SDS011;20110;53.120;5.786;2022-12-18T02:01:25;102.78;;;30.95;;
33802;SDS011;20110;53.120;5.786;2022-12-18T02:03:51;107.95;;;33.47;;
33802;SDS011;20110;53.120;5.786;2022-12-18T02:06:26;92.07;;;33.72;;
33802;SDS011;20110;53.120;5.786;2022-12-18T02:09:15;74.88;;;23.95;;
33802;SDS011;20110;53.120;5.786;2022-12-18T02:14:46;80.47;;;28.15;;
33802;SDS011;20110;53.120;5.786;2022-12-18T02:20:12;100.07;;;32.45;;
33802;SDS011;20110;53.120;5.786;2022-12-18T02:26:05;68.63;;;26.90;;
33802;SDS011;20110;53.120;5.786;2022-12-18T02:28:58;72.45;;;22.67;;
33802;SDS011;20110;53.120;5.786;2022-12-18T02:31:32;86.45;;;29.88;;
33802;SDS011;20110;53.120;5.786;2022-12-18T02:34:07;226.30;;;37.88;;
33802;SDS011;20110;53.120;5.786;2022-12-18T02:36:35;59.55;;;23.65;;
33802;SDS011;20110;53.120;5.786;2022-12-18T02:39:05;46.97;;;21.13;;
33802;SDS011;20110;53.120;5.786;2022-12-18T02:41:36;76.60;;;24.98;;
33802;SDS011;20110;53.120;5.786;2022-12-18T02:44:07;111.43;;;33.70;;
33802;SDS011;20110;53.120;5.786;2022-12-18T02:46:39;28.65;;;13.50;;
33802;SDS011;20110;53.120;5.786;2022-12-18T02:51:39;66.38;;;23.70;;
33802;SDS011;20110;53.120;5.786;2022-12-18T02:57:08;40.45;;;17.73;;
33802;SDS011;20110;53.120;5.786;2022-12-18T03:05:43;52.80;;;16.77;;
33802;SDS011;20110;53.120;5.786;2022-12-18T03:08:21;74.55;;;25.98;;
33802;SDS011;20110;53.120;5.786;2022-12-18T03:11:01;70.68;;;26.33;;
33802;SDS011;20110;53.120;5.786;2022-12-18T03:13:36;65.60;;;23.35;;
33802;SDS011;20110;53.120;5.786;2022-12-18T03:16:11;83.22;;;27.52;;
33802;SDS011;20110;53.120;5.786;2022-12-18T03:18:46;84.85;;;31.02;;
33802;SDS011;20110;53.120;5.786;2022-12-18T03:21:21;37.88;;;17.23;;
33802;SDS011;20110;53.120;5.786;2022-12-18T03:23:54;52.13;;;19.05;;
33802;SDS011;20110;53.120;5.786;2022-12-18T03:26:22;68.95;;;24.92;;
33802;SDS011;20110;53.120;5.786;2022-12-18T03:28:59;43.30;;;15.90;;
33802;SDS011;20110;53.120;5.786;2022-12-18T03:31:33;73.07;;;28.80;;
33802;SDS011;20110;53.120;5.786;2022-12-18T03:33:59;64.95;;;24.83;;
33802;SDS011;20110;53.120;5.786;2022-12-18T03:36:32;75.18;;;27.08;;
33802;SDS011;20110;53.120;5.786;2022-12-18T03:38:57;83.10;;;27.50;;
33802;SDS011;20110;53.120;5.786;2022-12-18T03:41:34;52.72;;;20.13;;
33802;SDS011;20110;53.120;5.786;2022-12-18T03:44:28;50.70;;;19.33;;
33802;SDS011;20110;53.120;5.786;2022-12-18T03:47:06;91.57;;;29.85;;
33802;SDS011;20110;53.120;5.786;2022-12-18T03:52:41;102.70;;;29.58;;
33802;SDS011;20110;53.120;5.786;2022-12-18T03:55:15;123.05;;;34.45;;
33802;SDS011;20110;53.120;5.786;2022-12-18T03:57:44;49.90;;;20.25;;
33802;SDS011;20110;53.120;5.786;2022-12-18T04:00:14;105.72;;;33.65;;
33802;SDS011;20110;53.120;5.786;2022-12-18T04:02:44;91.93;;;28.50;;
33802;SDS011;20110;53.120;5.786;2022-12-18T04:05:16;62.92;;;18.90;;
33802;SDS011;20110;53.120;5.786;2022-12-18T04:07:45;98.57;;;34.05;;
33802;SDS011;20110;53.120;5.786;2022-12-18T04:10:13;81.43;;;27.38;;
33802;SDS011;20110;53.120;5.786;2022-12-18T04:12:42;72.63;;;30.10;;
33802;SDS011;20110;53.120;5.786;2022-12-18T04:15:08;70.95;;;27.52;;
33802;SDS011;20110;53.120;5.786;2022-12-18T04:17:36;108.18;;;32.03;;
33802;SDS011;20110;53.120;5.786;2022-12-18T04:20:03;83.38;;;28.35;;
33802;SDS011;20110;53.120;5.786;2022-12-18T04:22:29;67.97;;;27.08;;
33802;SDS011;20110;53.120;5.786;2022-12-18T04:24:55;71.78;;;22.38;;
33802;SDS011;20110;53.120;5.786;2022-12-18T04:27:21;65.70;;;21.30;;
33802;SDS011;20110;53.120;5.786;2022-12-18T04:29:47;46.20;;;19.00;;
33802;SDS011;20110;53.120;5.786;2022-12-18T04:32:13;80.93;;;27.02;;
33802;SDS011;20110;53.120;5.786;2022-12-18T04:34:39;75.63;;;24.52;;
33802;SDS011;20110;53.120;5.786;2022-12-18T04:37:04;65.82;;;20.48;;
33802;SDS011;20110;53.120;5.786;2022-12-18T04:39:30;56.80;;;20.70;;
33802;SDS011;20110;53.120;5.786;2022-12-18T04:41:56;75.47;;;30.45;;
33802;SDS011;20110;53.120;5.786;2022-12-18T04:44:22;62.50;;;20.38;;
33802;SDS011;20110;53.120;5.786;2022-12-18T04:46:47;55.47;;;21.40;;
33802;SDS011;20110;53.120;5.786;2022-12-18T04:49:13;53.88;;;21.98;;
33802;SDS011;20110;53.120;5.786;2022-12-18T04:51:39;58.35;;;21.38;;
33802;SDS011;20110;53.120;5.786;2022-12-18T04:54:05;67.43;;;25.35;;
33802;SDS011;20110;53.120;5.786;2022-12-18T04:56:31;46.65;;;17.45;;
33802;SDS011;20110;53.120;5.786;2022-12-18T04:58:57;71.65;;;26.65;;
33802;SDS011;20110;53.120;5.786;2022-12-18T05:01:23;72.32;;;26.40;;
33802;SDS011;20110;53.120;5.786;2022-12-18T05:03:48;84.28;;;27.17;;
33802;SDS011;20110;53.120;5.786;2022-12-18T05:06:16;81.63;;;30.63;;
33802;SDS011;20110;53.120;5.786;2022-12-18T05:08:42;66.00;;;24.98;;
33802;SDS011;20110;53.120;5.786;2022-12-18T05:11:09;67.18;;;22.63;;
33802;SDS011;20110;53.120;5.786;2022-12-18T05:13:40;64.18;;;26.08;;
33802;SDS011;20110;53.120;5.786;2022-12-18T05:16:10;56.13;;;22.13;;
33802;SDS011;20110;53.120;5.786;2022-12-18T05:18:38;73.50;;;26.15;;
33802;SDS011;20110;53.120;5.786;2022-12-18T05:21:04;92.97;;;29.98;;
33802;SDS011;20110;53.120;5.786;2022-12-18T05:23:30;74.03;;;28.30;;
33802;SDS011;20110;53.120;5.786;2022-12-18T05:26:00;153.25;;;29.40;;
33802;SDS011;20110;53.120;5.786;2022-12-18T05:28:29;82.45;;;27.80;;
33802;SDS011;20110;53.120;5.786;2022-12-18T05:30:58;60.53;;;20.92;;
33802;SDS011;20110;53.120;5.786;2022-12-18T05:33:28;73.10;;;26.60;;
33802;SDS011;20110;53.120;5.786;2022-12-18T05:35:58;90.22;;;26.67;;
33802;SDS011;20110;53.120;5.786;2022-12-18T05:38:26;28.60;;;13.75;;
33802;SDS011;20110;53.120;5.786;2022-12-18T05:40:54;58.28;;;23.15;;
33802;SDS011;20110;53.120;5.786;2022-12-18T05:43:21;83.60;;;28.17;;
33802;SDS011;20110;53.120;5.786;2022-12-18T05:45:49;40.55;;;16.67;;
33802;SDS011;20110;53.120;5.786;2022-12-18T05:48:16;78.05;;;27.85;;
33802;SDS011;20110;53.120;5.786;2022-12-18T05:50:43;88.93;;;28.92;;
33802;SDS011;20110;53.120;5.786;2022-12-18T05:53:11;46.33;;;17.70;;
33802;SDS011;20110;53.120;5.786;2022-12-18T05:55:38;68.07;;;24.85;;
33802;SDS011;20110;53.120;5.786;2022-12-18T05:58:07;33.53;;;17.13;;
33802;SDS011;20110;53.120;5.786;2022-12-18T06:00:35;76.43;;;23.60;;
33802;SDS011;20110;53.120;5.786;2022-12-18T06:03:05;66.00;;;24.05;;
33802;SDS011;20110;53.120;5.786;2022-12-18T06:05:38;70.30;;;27.05;;
33802;SDS011;20110;53.120;5.786;2022-12-18T06:08:07;67.50;;;24.95;;
33802;SDS011;20110;53.120;5.786;2022-12-18T06:10:34;148.05;;;26.25;;
33802;SDS011;20110;53.120;5.786;2022-12-18T06:12:59;34.67;;;14.10;;
33802;SDS011;20110;53.120;5.786;2022-12-18T06:15:25;47.03;;;18.48;;
33802;SDS011;20110;53.120;5.786;2022-12-18T06:17:51;43.20;;;19.70;;
33802;SDS011;20110;53.120;5.786;2022-12-18T06:20:17;48.78;;;17.98;;
33802;SDS011;20110;53.120;5.786;2022-12-18T06:22:43;35.80;;;16.40;;
33802;SDS011;20110;53.120;5.786;2022-12-18T06:25:09;54.88;;;20.73;;
33802;SDS011;20110;53.120;5.786;2022-12-18T06:27:35;53.50;;;21.55;;
33802;SDS011;20110;53.120;5.786;2022-12-18T06:30:01;64.03;;;20.55;;
33802;SDS011;20110;53.120;5.786;2022-12-18T06:32:28;70.07;;;18.50;;
33802;SDS011;20110;53.120;5.786;2022-12-18T06:34:54;55.45;;;19.92;;
33802;SDS011;20110;53.120;5.786;2022-12-18T06:37:20;61.13;;;19.85;;
33802;SDS011;20110;53.120;5.786;2022-12-18T06:39:49;28.90;;;14.40;;
33802;SDS011;20110;53.120;5.786;2022-12-18T06:42:15;47.35;;;20.02;;
33802;SDS011;20110;53.120;5.786;2022-12-18T06:44:41;25.75;;;11.40;;
33802;SDS011;20110;53.120;5.786;2022-12-18T06:47:07;59.50;;;21.20;;
33802;SDS011;20110;53.120;5.786;2022-12-18T06:49:32;37.28;;;17.48;;
33802;SDS011;20110;53.120;5.786;2022-12-18T06:51:58;51.10;;;21.45;;
33802;SDS011;20110;53.120;5.786;2022-12-18T06:54:24;98.03;;;24.05;;
33802;SDS011;20110;53.120;5.786;2022-12-18T06:56:50;46.72;;;19.55;;
33802;SDS011;20110;53.120;5.786;2022-12-18T06:59:15;48.03;;;18.15;;
33802;SDS011;20110;53.120;5.786;2022-12-18T07:01:41;42.70;;;18.17;;
33802;SDS011;20110;53.120;5.786;2022-12-18T07:04:07;42.90;;;17.90;;
33802;SDS011;20110;53.120;5.786;2022-12-18T07:06:33;50.80;;;19.67;;
33802;SDS011;20110;53.120;5.786;2022-12-18T07:08:58;56.28;;;18.73;;
33802;SDS011;20110;53.120;5.786;2022-12-18T07:11:24;63.42;;;22.40;;
33802;SDS011;20110;53.120;5.786;2022-12-18T07:13:51;56.90;;;20.05;;
33802;SDS011;20110;53.120;5.786;2022-12-18T07:16:18;48.83;;;19.73;;
33802;SDS011;20110;53.120;5.786;2022-12-18T07:18:45;51.28;;;20.50;;
33802;SDS011;20110;53.120;5.786;2022-12-18T07:21:13;36.00;;;16.60;;
33802;SDS011;20110;53.120;5.786;2022-12-18T07:23:41;47.88;;;20.33;;
33802;SDS011;20110;53.120;5.786;2022-12-18T07:26:08;25.00;;;10.50;;
33802;SDS011;20110;53.120;5.786;2022-12-18T07:28:38;40.78;;;16.13;;
33802;SDS011;20110;53.120;5.786;2022-12-18T07:31:06;29.20;;;11.40;;
33802;SDS011;20110;53.120;5.786;2022-12-18T07:33:37;53.95;;;15.60;;
33802;SDS011;20110;53.120;5.786;2022-12-18T07:36:04;45.58;;;17.83;;
33802;SDS011;20110;53.120;5.786;2022-12-18T07:38:32;69.85;;;22.17;;
33802;SDS011;20110;53.120;5.786;2022-12-18T07:41:04;54.85;;;20.75;;
33802;SDS011;20110;53.120;5.786;2022-12-18T07:43:36;56.10;;;18.38;;
33802;SDS011;20110;53.120;5.786;2022-12-18T07:46:04;46.22;;;18.45;;
33802;SDS011;20110;53.120;5.786;2022-12-18T07:48:31;45.00;;;16.55;;
33802;SDS011;20110;53.120;5.786;2022-12-18T07:51:05;38.63;;;17.23;;
33802;SDS011;20110;53.120;5.786;2022-12-18T07:53:32;48.15;;;20.50;;
33802;SDS011;20110;53.120;5.786;2022-12-18T07:56:01;53.92;;;20.92;;
33802;SDS011;20110;53.120;5.786;2022-12-18T07:58:33;40.47;;;16.83;;
33802;SDS011;20110;53.120;5.786;2022-12-18T08:01:04;34.40;;;15.65;;
33802;SDS011;20110;53.120;5.786;2022-12-18T08:03:35;49.25;;;20.60;;
33802;SDS011;20110;53.120;5.786;2022-12-18T08:06:04;49.70;;;20.67;;
33802;SDS011;20110;53.120;5.786;2022-12-18T08:08:32;51.40;;;18.85;;
33802;SDS011;20110;53.120;5.786;2022-12-18T08:11:00;37.05;;;17.30;;
33802;SDS011;20110;53.120;5.786;2022-12-18T08:13:26;53.70;;;18.67;;
33802;SDS011;20110;53.120;5.786;2022-12-18T08:15:59;46.17;;;16.83;;
33802;SDS011;20110;53.120;5.786;2022-12-18T08:18:28;42.15;;;17.33;;
33802;SDS011;20110;53.120;5.786;2022-12-18T08:21:09;51.38;;;20.35;;
33802;SDS011;20110;53.120;5.786;2022-12-18T08:23:40;48.88;;;19.35;;
33802;SDS011;20110;53.120;5.786;2022-12-18T08:26:07;40.65;;;15.02;;
33802;SDS011;20110;53.120;5.786;2022-12-18T08:28:33;41.78;;;19.30;;
33802;SDS011;20110;53.120;5.786;2022-12-18T08:30:59;35.78;;;15.10;;
33802;SDS011;20110;53.120;5.786;2022-12-18T08:33:25;45.67;;;18.25;;
33802;SDS011;20110;53.120;5.786;2022-12-18T08:35:52;52.78;;;18.40;;
33802;SDS011;20110;53.120;5.786;2022-12-18T08:38:18;27.33;;;13.80;;
33802;SDS011;20110;53.120;5.786;2022-12-18T08:40:44;42.25;;;19.17;;
33802;SDS011;20110;53.120;5.786;2022-12-18T08:43:10;36.85;;;17.92;;
33802;SDS011;20110;53.120;5.786;2022-12-18T08:45:54;39.03;;;17.92;;
33802;SDS011;20110;53.120;5.786;2022-12-18T08:48:20;42.65;;;18.27;;
33802;SDS011;20110;53.120;5.786;2022-12-18T08:50:53;32.58;;;13.73;;
33802;SDS011;20110;53.120;5.786;2022-12-18T08:53:21;26.95;;;12.10;;
33802;SDS011;20110;53.120;5.786;2022-12-18T08:55:47;44.67;;;16.33;;
33802;SDS011;20110;53.120;5.786;2022-12-18T08:58:13;44.50;;;18.10;;
33802;SDS011;20110;53.120;5.786;2022-12-18T09:00:38;41.85;;;17.10;;
33802;SDS011;20110;53.120;5.786;2022-12-18T09:03:04;41.13;;;15.93;;
33802;SDS011;20110;53.120;5.786;2022-12-18T09:05:30;21.50;;;11.88;;
33802;SDS011;20110;53.120;5.786;2022-12-18T09:07:56;36.53;;;15.63;;
33802;SDS011;20110;53.120;5.786;2022-12-18T09:10:21;41.47;;;15.63;;
33802;SDS011;20110;53.120;5.786;2022-12-18T09:12:47;38.35;;;16.88;;
33802;SDS011;20110;53.120;5.786;2022-12-18T09:15:13;35.15;;;16.67;;
33802;SDS011;20110;53.120;5.786;2022-12-18T09:17:39;37.05;;;14.90;;
33802;SDS011;20110;53.120;5.786;2022-12-18T09:20:05;46.65;;;19.52;;
33802;SDS011;20110;53.120;5.786;2022-12-18T09:22:31;43.53;;;19.42;;
33802;SDS011;20110;53.120;5.786;2022-12-18T09:24:57;43.17;;;19.60;;
33802;SDS011;20110;53.120;5.786;2022-12-18T09:27:23;40.25;;;19.15;;
33802;SDS011;20110;53.120;5.786;2022-12-18T09:29:49;35.38;;;16.50;;
33802;SDS011;20110;53.120;5.786;2022-12-18T09:32:14;30.35;;;13.55;;
33802;SDS011;20110;53.120;5.786;2022-12-18T09:34:40;21.98;;;11.63;;
33802;SDS011;20110;53.120;5.786;2022-12-18T09:37:06;22.27;;;11.02;;
33802;SDS011;20110;53.120;5.786;2022-12-18T09:39:32;28.98;;;14.43;;
33802;SDS011;20110;53.120;5.786;2022-12-18T09:42:00;29.50;;;12.70;;
33802;SDS011;20110;53.120;5.786;2022-12-18T09:47:12;28.92;;;13.27;;
33802;SDS011;20110;53.120;5.786;2022-12-18T09:49:53;25.63;;;13.52;;
33802;SDS011;20110;53.120;5.786;2022-12-18T09:52:35;35.22;;;16.15;;
33802;SDS011;20110;53.120;5.786;2022-12-18T09:55:20;24.55;;;11.05;;
33802;SDS011;20110;53.120;5.786;2022-12-18T09:57:53;17.50;;;9.15;;
33802;SDS011;20110;53.120;5.786;2022-12-18T10:00:27;16.13;;;8.93;;
33802;SDS011;20110;53.120;5.786;2022-12-18T10:02:53;35.42;;;15.13;;
33802;SDS011;20110;53.120;5.786;2022-12-18T10:11:20;28.45;;;12.98;;
33802;SDS011;20110;53.120;5.786;2022-12-18T10:13:55;25.02;;;12.48;;
33802;SDS011;20110;53.120;5.786;2022-12-18T10:24:52;37.00;;;13.77;;
33802;SDS011;20110;53.120;5.786;2022-12-18T10:27:45;26.50;;;12.15;;
33802;SDS011;20110;53.120;5.786;2022-12-18T10:30:15;21.85;;;12.68;;
33802;SDS011;20110;53.120;5.786;2022-12-18T10:32:45;22.75;;;10.40;;
33802;SDS011;20110;53.120;5.786;2022-12-18T10:35:15;32.10;;;13.88;;
33802;SDS011;20110;53.120;5.786;2022-12-18T10:38:02;16.80;;;10.43;;
33802;SDS011;20110;53.120;5.786;2022-12-18T10:43:22;17.08;;;9.50;;
33802;SDS011;20110;53.120;5.786;2022-12-18T10:45:57;20.80;;;10.23;;
33802;SDS011;20110;53.120;5.786;2022-12-18T10:48:26;17.65;;;8.60;;
33802;SDS011;20110;53.120;5.786;2022-12-18T10:50:53;31.45;;;11.40;;
33802;SDS011;20110;53.120;5.786;2022-12-18T10:53:22;15.45;;;8.35;;
33802;SDS011;20110;53.120;5.786;2022-12-18T10:55:56;24.50;;;10.07;;
33802;SDS011;20110;53.120;5.786;2022-12-18T10:58:29;18.00;;;10.27;;
33802;SDS011;20110;53.120;5.786;2022-12-18T11:08:58;10.93;;;7.80;;
33802;SDS011;20110;53.120;5.786;2022-12-18T11:11:50;21.25;;;11.38;;
33802;SDS011;20110;53.120;5.786;2022-12-18T11:17:32;13.02;;;8.55;;
33802;SDS011;20110;53.120;5.786;2022-12-18T11:20:01;16.10;;;9.82;;
33802;SDS011;20110;53.120;5.786;2022-12-18T11:22:43;12.05;;;7.00;;
33802;SDS011;20110;53.120;5.786;2022-12-18T11:25:22;10.48;;;6.80;;
33802;SDS011;20110;53.120;5.786;2022-12-18T11:27:58;13.88;;;8.48;;
33802;SDS011;20110;53.120;5.786;2022-12-18T11:30:30;75.20;;;14.07;;
33802;SDS011;20110;53.120;5.786;2022-12-18T11:36:07;17.30;;;9.40;;
33802;SDS011;20110;53.120;5.786;2022-12-18T11:38:35;15.48;;;8.27;;
33802;SDS011;20110;53.120;5.786;2022-12-18T11:41:07;20.67;;;10.55;;
33802;SDS011;20110;53.120;5.786;2022-12-18T11:44:22;18.20;;;9.40;;
33802;SDS011;20110;53.120;5.786;2022-12-18T11:47:11;12.93;;;6.88;;
33802;SDS011;20110;53.120;5.786;2022-12-18T11:50:01;13.95;;;7.35;;
33802;SDS011;20110;53.120;5.786;2022-12-18T11:52:33;15.50;;;7.32;;
33802;SDS011;20110;53.120;5.786;2022-12-18T11:55:09;12.32;;;8.48;;
33802;SDS011;20110;53.120;5.786;2022-12-18T11:58:47;20.85;;;9.98;;
33802;SDS011;20110;53.120;5.786;2022-12-18T12:00:47;20.20;;;9.65;;
33802;SDS011;20110;53.120;5.786;2022-12-18T12:03:49;25.15;;;13.52;;
33802;SDS011;20110;53.120;5.786;2022-12-18T12:09:43;16.63;;;8.27;;
33802;SDS011;20110;53.120;5.786;2022-12-18T12:18:31;23.45;;;10.27;;
33802;SDS011;20110;53.120;5.786;2022-12-18T12:24:44;265.05;;;21.85;;
33802;SDS011;20110;53.120;5.786;2022-12-18T12:30:48;16.70;;;6.50;;
33802;SDS011;20110;53.120;5.786;2022-12-18T12:33:56;12.00;;;6.03;;
33802;SDS011;20110;53.120;5.786;2022-12-18T12:39:22;12.18;;;7.38;;
33802;SDS011;20110;53.120;5.786;2022-12-18T12:42:18;12.77;;;8.18;;
33802;SDS011;20110;53.120;5.786;2022-12-18T12:45:16;17.38;;;8.38;;
33802;SDS011;20110;53.120;5.786;2022-12-18T12:47:52;10.00;;;7.32;;
33802;SDS011;20110;53.120;5.786;2022-12-18T12:50:22;12.75;;;7.45;;
33802;SDS011;20110;53.120;5.786;2022-12-18T12:52:53;16.10;;;9.02;;
33802;SDS011;20110;53.120;5.786;2022-12-18T12:55:23;15.77;;;8.65;;
33802;SDS011;20110;53.120;5.786;2022-12-18T12:58:01;19.30;;;8.88;;
33802;SDS011;20110;53.120;5.786;2022-12-18T13:03:41;12.05;;;7.65;;
33802;SDS011;20110;53.120;5.786;2022-12-18T13:06:32;18.20;;;8.75;;
33802;SDS011;20110;53.120;5.786;2022-12-18T13:09:30;15.25;;;8.07;;
33802;SDS011;20110;53.120;5.786;2022-12-18T13:12:01;19.90;;;8.88;;
33802;SDS011;20110;53.120;5.786;2022-12-18T13:14:55;9.68;;;6.90;;
33802;SDS011;20110;53.120;5.786;2022-12-18T13:17:46;17.85;;;8.27;;
33802;SDS011;20110;53.120;5.786;2022-12-18T13:20:12;14.35;;;9.20;;
33802;SDS011;20110;53.120;5.786;2022-12-18T13:22:42;18.02;;;8.35;;
33802;SDS011;20110;53.120;5.786;2022-12-18T13:25:44;19.40;;;10.00;;
33802;SDS011;20110;53.120;5.786;2022-12-18T13:43:37;20.63;;;9.40;;
33802;SDS011;20110;53.120;5.786;2022-12-18T13:51:42;15.98;;;8.95;;
33802;SDS011;20110;53.120;5.786;2022-12-18T13:56:49;17.48;;;8.60;;
33802;SDS011;20110;53.120;5.786;2022-12-18T14:01:52;16.38;;;8.43;;
33802;SDS011;20110;53.120;5.786;2022-12-18T14:04:52;12.40;;;7.63;;
33802;SDS011;20110;53.120;5.786;2022-12-18T14:07:25;12.75;;;8.00;;
33802;SDS011;20110;53.120;5.786;2022-12-18T14:09:56;16.90;;;8.13;;
33802;SDS011;20110;53.120;5.786;2022-12-18T14:12:26;11.20;;;6.85;;
33802;SDS011;20110;53.120;5.786;2022-12-18T14:15:31;14.90;;;8.05;;
33802;SDS011;20110;53.120;5.786;2022-12-18T14:18:25;11.43;;;7.20;;
33802;SDS011;20110;53.120;5.786;2022-12-18T14:20:59;10.23;;;7.47;;
33802;SDS011;20110;53.120;5.786;2022-12-18T14:23:32;8.57;;;6.32;;
33802;SDS011;20110;53.120;5.786;2022-12-18T14:26:25;12.60;;;6.57;;
33802;SDS011;20110;53.120;5.786;2022-12-18T14:28:58;9.48;;;6.53;;
33802;SDS011;20110;53.120;5.786;2022-12-18T14:31:42;7.97;;;6.05;;
33802;SDS011;20110;53.120;5.786;2022-12-18T14:34:14;13.07;;;7.45;;
33802;SDS011;20110;53.120;5.786;2022-12-18T14:36:53;10.63;;;6.55;;
33802;SDS011;20110;53.120;5.786;2022-12-18T14:39:20;14.43;;;8.05;;
33802;SDS011;20110;53.120;5.786;2022-12-18T14:41:49;11.70;;;6.15;;
33802;SDS011;20110;53.120;5.786;2022-12-18T14:44:15;10.27;;;6.20;;
33802;SDS011;20110;53.120;5.786;2022-12-18T14:46:44;15.82;;;6.40;;
33802;SDS011;20110;53.120;5.786;2022-12-18T14:49:23;21.50;;;7.05;;
33802;SDS011;20110;53.120;5.786;2022-12-18T14:52:03;9.38;;;6.57;;
33802;SDS011;20110;53.120;5.786;2022-12-18T14:54:38;12.68;;;7.20;;
33802;SDS011;20110;53.120;5.786;2022-12-18T14:59:43;12.13;;;6.80;;
33802;SDS011;20110;53.120;5.786;2022-12-18T15:04:47;8.90;;;5.07;;
33802;SDS011;20110;53.120;5.786;2022-12-18T15:07:24;10.75;;;6.07;;
33802;SDS011;20110;53.120;5.786;2022-12-18T15:12:48;6.43;;;4.22;;
33802;SDS011;20110;53.120;5.786;2022-12-18T15:18:10;9.60;;;4.80;;
33802;SDS011;20110;53.120;5.786;2022-12-18T15:20:50;12.55;;;5.50;;
33802;SDS011;20110;53.120;5.786;2022-12-18T15:23:25;6.13;;;5.25;;
33802;SDS011;20110;53.120;5.786;2022-12-18T15:26:11;9.60;;;6.10;;
33802;SDS011;20110;53.120;5.786;2022-12-18T15:28:44;10.82;;;6.53;;
33802;SDS011;20110;53.120;5.786;2022-12-18T15:31:38;9.45;;;6.68;;
33802;SDS011;20110;53.120;5.786;2022-12-18T15:34:09;10.00;;;5.38;;
33802;SDS011;20110;53.120;5.786;2022-12-18T15:36:45;6.10;;;5.10;;
33802;SDS011;20110;53.120;5.786;2022-12-18T15:39:12;9.50;;;6.32;;
33802;SDS011;20110;53.120;5.786;2022-12-18T15:41:38;8.05;;;6.10;;
33802;SDS011;20110;53.120;5.786;2022-12-18T15:44:20;8.60;;;5.00;;
33802;SDS011;20110;53.120;5.786;2022-12-18T15:46:50;8.95;;;6.07;;
33802;SDS011;20110;53.120;5.786;2022-12-18T15:49:16;12.95;;;6.75;;
33802;SDS011;20110;53.120;5.786;2022-12-18T15:51:41;10.73;;;6.95;;
33802;SDS011;20110;53.120;5.786;2022-12-18T15:54:11;15.55;;;6.03;;
33802;SDS011;20110;53.120;5.786;2022-12-18T15:56:41;9.68;;;5.93;;
33802;SDS011;20110;53.120;5.786;2022-12-18T15:59:25;14.40;;;6.23;;
33802;SDS011;20110;53.120;5.786;2022-12-18T16:01:51;7.80;;;6.45;;
33802;SDS011;20110;53.120;5.786;2022-12-18T16:04:18;11.77;;;6.40;;
33802;SDS011;20110;53.120;5.786;2022-12-18T16:06:46;15.20;;;7.53;;
33802;SDS011;20110;53.120;5.786;2022-12-18T16:09:13;9.02;;;5.93;;
33802;SDS011;20110;53.120;5.786;2022-12-18T16:11:40;9.00;;;6.03;;
33802;SDS011;20110;53.120;5.786;2022-12-18T16:16:49;7.13;;;5.22;;
33802;SDS011;20110;53.120;5.786;2022-12-18T16:19:18;6.65;;;4.38;;
33802;SDS011;20110;53.120;5.786;2022-12-18T16:21:46;7.65;;;5.60;;
33802;SDS011;20110;53.120;5.786;2022-12-18T16:24:17;11.80;;;6.60;;
33802;SDS011;20110;53.120;5.786;2022-12-18T16:26:48;14.65;;;7.20;;
33802;SDS011;20110;53.120;5.786;2022-12-18T16:29:16;10.57;;;6.93;;
33802;SDS011;20110;53.120;5.786;2022-12-18T16:31:43;12.48;;;6.82;;
33802;SDS011;20110;53.120;5.786;2022-12-18T16:34:18;5.05;;;4.57;;
33802;SDS011;20110;53.120;5.786;2022-12-18T16:36:53;12.60;;;6.20;;
33802;SDS011;20110;53.120;5.786;2022-12-18T16:39:31;10.48;;;5.30;;
33802;SDS011;20110;53.120;5.786;2022-12-18T16:42:11;9.50;;;6.25;;
33802;SDS011;20110;53.120;5.786;2022-12-18T16:44:44;7.60;;;4.85;;
33802;SDS011;20110;53.120;5.786;2022-12-18T16:47:12;10.65;;;4.95;;
33802;SDS011;20110;53.120;5.786;2022-12-18T16:49:38;14.27;;;6.97;;
33802;SDS011;20110;53.120;5.786;2022-12-18T16:52:04;12.85;;;5.43;;
33802;SDS011;20110;53.120;5.786;2022-12-18T16:54:30;14.05;;;6.75;;